sensor_id;sensor_type;location;lat;lon;timestamp;temperature;humidity
26326;DHT22;14032;52.510;7.342;2023-06-10T00:02:16;19.10;92.00
26326;DHT22;14032;52.510;7.342;2023-06-10T00:04:42;19.00;92.10
26326;DHT22;14032;52.510;7.342;2023-06-10T00:07:08;19.00;92.10
26326;DHT22;14032;52.510;7.342;2023-06-10T00:09:35;19.00;92.20
26326;DHT22;14032;52.510;7.342;2023-06-10T00:12:06;18.90;92.30
26326;DHT22;14032;52.510;7.342;2023-06-10T00:14:33;18.90;92.50
26326;DHT22;14032;52.510;7.342;2023-06-10T00:16:58;18.80;92.60
26326;DHT22;14032;52.510;7.342;2023-06-10T00:19:24;18.80;92.90
26326;DHT22;14032;52.510;7.342;2023-06-10T00:21:51;18.80;93.00
26326;DHT22;14032;52.510;7.342;2023-06-10T00:24:18;18.70;93.30
26326;DHT22;14032;52.510;7.342;2023-06-10T00:26:44;18.70;93.50
26326;DHT22;14032;52.510;7.342;2023-06-10T00:29:10;18.60;93.80
26326;DHT22;14032;52.510;7.342;2023-06-10T00:31:37;18.50;94.00
26326;DHT22;14032;52.510;7.342;2023-06-10T00:34:03;18.50;94.20
26326;DHT22;14032;52.510;7.342;2023-06-10T00:36:29;18.50;94.40
26326;DHT22;14032;52.510;7.342;2023-06-10T00:38:55;18.50;94.60
26326;DHT22;14032;52.510;7.342;2023-06-10T00:41:21;18.50;94.70
26326;DHT22;14032;52.510;7.342;2023-06-10T00:43:46;18.50;95.00
26326;DHT22;14032;52.510;7.342;2023-06-10T00:46:12;18.40;95.20
26326;DHT22;14032;52.510;7.342;2023-06-10T00:48:40;18.40;95.40
26326;DHT22;14032;52.510;7.342;2023-06-10T00:51:06;18.40;95.60
26326;DHT22;14032;52.510;7.342;2023-06-10T00:53:35;18.40;95.70
26326;DHT22;14032;52.510;7.342;2023-06-10T00:56:02;18.40;95.90
26326;DHT22;14032;52.510;7.342;2023-06-10T00:58:28;18.40;96.00
26326;DHT22;14032;52.510;7.342;2023-06-10T01:00:53;18.40;96.20
26326;DHT22;14032;52.510;7.342;2023-06-10T01:03:19;18.30;96.40
26326;DHT22;14032;52.510;7.342;2023-06-10T01:05:48;18.30;96.50
26326;DHT22;14032;52.510;7.342;2023-06-10T01:08:32;18.20;96.70
26326;DHT22;14032;52.510;7.342;2023-06-10T01:11:00;18.20;96.80
26326;DHT22;14032;52.510;7.342;2023-06-10T01:13:28;18.20;97.10
26326;DHT22;14032;52.510;7.342;2023-06-10T01:15:55;18.20;97.30
26326;DHT22;14032;52.510;7.342;2023-06-10T01:18:21;18.10;97.50
26326;DHT22;14032;52.510;7.342;2023-06-10T01:20:48;18.10;97.80
26326;DHT22;14032;52.510;7.342;2023-06-10T01:23:15;18.00;97.90
26326;DHT22;14032;52.510;7.342;2023-06-10T01:25:56;18.00;98.30
26326;DHT22;14032;52.510;7.342;2023-06-10T01:28:47;17.90;98.30
26326;DHT22;14032;52.510;7.342;2023-06-10T01:31:41;17.90;98.40
26326;DHT22;14032;52.510;7.342;2023-06-10T01:34:09;17.90;98.70
26326;DHT22;14032;52.510;7.342;2023-06-10T01:36:36;17.90;98.90
26326;DHT22;14032;52.510;7.342;2023-06-10T01:39:03;17.80;99.00
26326;DHT22;14032;52.510;7.342;2023-06-10T01:41:30;17.80;99.30
26326;DHT22;14032;52.510;7.342;2023-06-10T01:43:56;17.80;99.50
26326;DHT22;14032;52.510;7.342;2023-06-10T01:46:21;17.70;99.70
26326;DHT22;14032;52.510;7.342;2023-06-10T01:48:47;17.70;99.90
26326;DHT22;14032;52.510;7.342;2023-06-10T01:51:13;17.60;99.90
26326;DHT22;14032;52.510;7.342;2023-06-10T01:53:38;17.60;99.90
26326;DHT22;14032;52.510;7.342;2023-06-10T01:56:04;17.60;99.90
26326;DHT22;14032;52.510;7.342;2023-06-10T01:58:30;17.50;99.90
26326;DHT22;14032;52.510;7.342;2023-06-10T02:00:56;17.50;99.90
26326;DHT22;14032;52.510;7.342;2023-06-10T02:03:21;17.50;99.90
26326;DHT22;14032;52.510;7.342;2023-06-10T02:05:47;17.40;99.90
26326;DHT22;14032;52.510;7.342;2023-06-10T02:08:13;17.40;99.90
26326;DHT22;14032;52.510;7.342;2023-06-10T02:10:38;17.30;99.90
26326;DHT22;14032;52.510;7.342;2023-06-10T02:13:04;17.30;99.90
26326;DHT22;14032;52.510;7.342;2023-06-10T02:15:30;17.30;99.90
26326;DHT22;14032;52.510;7.342;2023-06-10T02:17:55;17.30;99.90
26326;DHT22;14032;52.510;7.342;2023-06-10T02:20:21;17.20;99.90
26326;DHT22;14032;52.510;7.342;2023-06-10T02:22:47;17.10;99.90
26326;DHT22;14032;52.510;7.342;2023-06-10T02:25:12;17.10;99.90
26326;DHT22;14032;52.510;7.342;2023-06-10T02:27:38;17.10;99.90
26326;DHT22;14032;52.510;7.342;2023-06-10T02:30:04;17.00;99.90
26326;DHT22;14032;52.510;7.342;2023-06-10T02:32:30;17.00;99.90
26326;DHT22;14032;52.510;7.342;2023-06-10T02:34:55;17.00;99.90
26326;DHT22;14032;52.510;7.342;2023-06-10T02:37:21;17.00;99.90
26326;DHT22;14032;52.510;7.342;2023-06-10T02:39:47;16.90;99.90
26326;DHT22;14032;52.510;7.342;2023-06-10T02:42:12;16.90;99.90
26326;DHT22;14032;52.510;7.342;2023-06-10T02:44:38;16.80;99.90
26326;DHT22;14032;52.510;7.342;2023-06-10T02:47:04;16.80;99.90
26326;DHT22;14032;52.510;7.342;2023-06-10T02:49:30;16.80;99.90
26326;DHT22;14032;52.510;7.342;2023-06-10T02:51:56;16.70;99.90
26326;DHT22;14032;52.510;7.342;2023-06-10T02:54:23;16.70;99.90
26326;DHT22;14032;52.510;7.342;2023-06-10T02:56:49;16.70;99.90
26326;DHT22;14032;52.510;7.342;2023-06-10T02:59:15;16.60;99.90
26326;DHT22;14032;52.510;7.342;2023-06-10T03:01:41;16.60;99.90
26326;DHT22;14032;52.510;7.342;2023-06-10T03:04:07;16.60;99.90
26326;DHT22;14032;52.510;7.342;2023-06-10T03:06:33;16.60;99.90
26326;DHT22;14032;52.510;7.342;2023-06-10T03:09:00;16.60;99.90
26326;DHT22;14032;52.510;7.342;2023-06-10T03:11:25;16.50;99.90
26326;DHT22;14032;52.510;7.342;2023-06-10T03:13:51;16.50;99.90
26326;DHT22;14032;52.510;7.342;2023-06-10T03:16:19;16.50;99.90
26326;DHT22;14032;52.510;7.342;2023-06-10T03:18:44;16.50;99.90
26326;DHT22;14032;52.510;7.342;2023-06-10T03:21:10;16.40;99.90
26326;DHT22;14032;52.510;7.342;2023-06-10T03:23:36;16.40;99.90
26326;DHT22;14032;52.510;7.342;2023-06-10T03:26:02;16.40;99.90
26326;DHT22;14032;52.510;7.342;2023-06-10T03:28:30;16.30;99.90
26326;DHT22;14032;52.510;7.342;2023-06-10T03:30:56;16.30;99.90
26326;DHT22;14032;52.510;7.342;2023-06-10T03:33:21;16.30;99.90
26326;DHT22;14032;52.510;7.342;2023-06-10T03:35:47;16.30;99.90
26326;DHT22;14032;52.510;7.342;2023-06-10T03:38:13;16.20;99.90
26326;DHT22;14032;52.510;7.342;2023-06-10T03:40:39;16.20;99.90
26326;DHT22;14032;52.510;7.342;2023-06-10T03:43:04;16.20;99.90
26326;DHT22;14032;52.510;7.342;2023-06-10T03:45:30;16.20;99.90
26326;DHT22;14032;52.510;7.342;2023-06-10T03:47:57;16.30;99.90
26326;DHT22;14032;52.510;7.342;2023-06-10T03:50:23;16.20;99.90
26326;DHT22;14032;52.510;7.342;2023-06-10T03:52:50;16.20;99.90
26326;DHT22;14032;52.510;7.342;2023-06-10T03:55:16;16.20;99.90
26326;DHT22;14032;52.510;7.342;2023-06-10T03:57:42;16.10;99.90
26326;DHT22;14032;52.510;7.342;2023-06-10T04:00:08;16.10;99.90
26326;DHT22;14032;52.510;7.342;2023-06-10T04:02:40;16.10;99.90
26326;DHT22;14032;52.510;7.342;2023-06-10T04:05:11;16.10;99.90
26326;DHT22;14032;52.510;7.342;2023-06-10T04:07:37;16.10;99.90
26326;DHT22;14032;52.510;7.342;2023-06-10T04:10:06;16.10;99.90
26326;DHT22;14032;52.510;7.342;2023-06-10T04:12:32;16.10;99.90
26326;DHT22;14032;52.510;7.342;2023-06-10T04:14:57;16.10;99.90
26326;DHT22;14032;52.510;7.342;2023-06-10T04:17:24;16.20;99.90
26326;DHT22;14032;52.510;7.342;2023-06-10T04:19:49;16.20;99.90
26326;DHT22;14032;52.510;7.342;2023-06-10T04:22:15;16.20;99.90
26326;DHT22;14032;52.510;7.342;2023-06-10T04:24:42;16.20;99.90
26326;DHT22;14032;52.510;7.342;2023-06-10T04:27:08;16.20;99.90
26326;DHT22;14032;52.510;7.342;2023-06-10T04:29:33;16.20;99.90
26326;DHT22;14032;52.510;7.342;2023-06-10T04:31:59;16.20;99.90
26326;DHT22;14032;52.510;7.342;2023-06-10T04:34:27;16.20;99.90
26326;DHT22;14032;52.510;7.342;2023-06-10T04:36:52;16.20;99.90
26326;DHT22;14032;52.510;7.342;2023-06-10T04:39:18;16.20;99.90
26326;DHT22;14032;52.510;7.342;2023-06-10T04:41:45;16.20;99.90
26326;DHT22;14032;52.510;7.342;2023-06-10T04:44:11;16.30;99.90
26326;DHT22;14032;52.510;7.342;2023-06-10T04:46:39;16.30;99.90
26326;DHT22;14032;52.510;7.342;2023-06-10T04:49:08;16.40;99.90
26326;DHT22;14032;52.510;7.342;2023-06-10T04:51:34;16.50;99.90
26326;DHT22;14032;52.510;7.342;2023-06-10T04:54:00;16.50;99.90
26326;DHT22;14032;52.510;7.342;2023-06-10T04:56:29;16.60;99.90
26326;DHT22;14032;52.510;7.342;2023-06-10T04:58:56;16.60;99.90
26326;DHT22;14032;52.510;7.342;2023-06-10T05:01:22;16.70;99.90
26326;DHT22;14032;52.510;7.342;2023-06-10T05:03:48;16.80;99.90
26326;DHT22;14032;52.510;7.342;2023-06-10T05:06:13;16.90;99.90
26326;DHT22;14032;52.510;7.342;2023-06-10T05:08:39;17.00;99.90
26326;DHT22;14032;52.510;7.342;2023-06-10T05:11:06;17.10;99.90
26326;DHT22;14032;52.510;7.342;2023-06-10T05:13:32;17.20;99.90
26326;DHT22;14032;52.510;7.342;2023-06-10T05:15:58;17.20;99.90
26326;DHT22;14032;52.510;7.342;2023-06-10T05:18:24;17.40;99.90
26326;DHT22;14032;52.510;7.342;2023-06-10T05:20:49;17.50;99.90
26326;DHT22;14032;52.510;7.342;2023-06-10T05:23:15;17.60;99.90
26326;DHT22;14032;52.510;7.342;2023-06-10T05:25:40;17.60;99.90
26326;DHT22;14032;52.510;7.342;2023-06-10T05:28:07;17.70;99.90
26326;DHT22;14032;52.510;7.342;2023-06-10T05:30:35;17.90;99.90
26326;DHT22;14032;52.510;7.342;2023-06-10T05:33:01;17.90;99.90
26326;DHT22;14032;52.510;7.342;2023-06-10T05:35:27;18.00;99.90
26326;DHT22;14032;52.510;7.342;2023-06-10T05:37:52;18.10;99.90
26326;DHT22;14032;52.510;7.342;2023-06-10T05:40:18;18.20;99.90
26326;DHT22;14032;52.510;7.342;2023-06-10T05:42:43;18.30;99.90
26326;DHT22;14032;52.510;7.342;2023-06-10T05:45:09;18.40;99.90
26326;DHT22;14032;52.510;7.342;2023-06-10T05:47:35;18.50;99.90
26326;DHT22;14032;52.510;7.342;2023-06-10T05:50:01;18.60;99.90
26326;DHT22;14032;52.510;7.342;2023-06-10T05:52:26;18.80;99.90
26326;DHT22;14032;52.510;7.342;2023-06-10T05:54:52;18.90;99.90
26326;DHT22;14032;52.510;7.342;2023-06-10T05:57:17;18.90;99.90
26326;DHT22;14032;52.510;7.342;2023-06-10T05:59:43;19.10;99.90
26326;DHT22;14032;52.510;7.342;2023-06-10T06:02:14;19.20;99.90
26326;DHT22;14032;52.510;7.342;2023-06-10T06:04:40;19.40;99.90
26326;DHT22;14032;52.510;7.342;2023-06-10T06:07:11;19.40;99.90
26326;DHT22;14032;52.510;7.342;2023-06-10T06:09:37;19.50;99.90
26326;DHT22;14032;52.510;7.342;2023-06-10T06:12:03;19.70;99.90
26326;DHT22;14032;52.510;7.342;2023-06-10T06:14:31;19.70;99.90
26326;DHT22;14032;52.510;7.342;2023-06-10T06:16:57;19.70;99.90
26326;DHT22;14032;52.510;7.342;2023-06-10T06:19:23;19.90;99.90
26326;DHT22;14032;52.510;7.342;2023-06-10T06:21:48;20.00;99.90
26326;DHT22;14032;52.510;7.342;2023-06-10T06:24:15;20.10;99.90
26326;DHT22;14032;52.510;7.342;2023-06-10T06:26:42;20.10;99.90
26326;DHT22;14032;52.510;7.342;2023-06-10T06:29:08;20.30;99.90
26326;DHT22;14032;52.510;7.342;2023-06-10T06:31:33;20.40;99.90
26326;DHT22;14032;52.510;7.342;2023-06-10T06:33:59;20.50;99.90
26326;DHT22;14032;52.510;7.342;2023-06-10T06:36:25;20.70;99.90
26326;DHT22;14032;52.510;7.342;2023-06-10T06:38:50;20.80;99.90
26326;DHT22;14032;52.510;7.342;2023-06-10T06:41:16;20.90;99.90
26326;DHT22;14032;52.510;7.342;2023-06-10T06:43:41;21.00;99.90
26326;DHT22;14032;52.510;7.342;2023-06-10T06:46:08;21.00;99.90
26326;DHT22;14032;52.510;7.342;2023-06-10T06:48:34;21.00;99.90
26326;DHT22;14032;52.510;7.342;2023-06-10T06:50:59;21.10;99.90
26326;DHT22;14032;52.510;7.342;2023-06-10T06:53:25;21.20;99.90
26326;DHT22;14032;52.510;7.342;2023-06-10T06:55:52;21.30;99.90
26326;DHT22;14032;52.510;7.342;2023-06-10T06:58:17;21.40;99.90
26326;DHT22;14032;52.510;7.342;2023-06-10T07:00:43;21.50;99.90
26326;DHT22;14032;52.510;7.342;2023-06-10T07:03:08;21.50;99.90
26326;DHT22;14032;52.510;7.342;2023-06-10T07:05:34;21.50;99.90
26326;DHT22;14032;52.510;7.342;2023-06-10T07:07:59;21.60;99.90
26326;DHT22;14032;52.510;7.342;2023-06-10T07:10:25;21.70;99.90
26326;DHT22;14032;52.510;7.342;2023-06-10T07:12:52;21.80;99.90
26326;DHT22;14032;52.510;7.342;2023-06-10T07:15:18;22.00;99.90
26326;DHT22;14032;52.510;7.342;2023-06-10T07:17:44;22.00;99.90
26326;DHT22;14032;52.510;7.342;2023-06-10T07:20:10;22.10;99.90
26326;DHT22;14032;52.510;7.342;2023-06-10T07:22:36;22.20;99.90
26326;DHT22;14032;52.510;7.342;2023-06-10T07:25:02;22.30;99.90
26326;DHT22;14032;52.510;7.342;2023-06-10T07:27:27;22.50;99.90
26326;DHT22;14032;52.510;7.342;2023-06-10T07:29:54;22.50;99.90
26326;DHT22;14032;52.510;7.342;2023-06-10T07:32:20;22.60;99.90
26326;DHT22;14032;52.510;7.342;2023-06-10T07:34:47;22.70;99.90
26326;DHT22;14032;52.510;7.342;2023-06-10T07:37:13;22.90;99.90
26326;DHT22;14032;52.510;7.342;2023-06-10T07:39:38;23.00;99.90
26326;DHT22;14032;52.510;7.342;2023-06-10T07:42:06;23.10;99.50
26326;DHT22;14032;52.510;7.342;2023-06-10T07:44:32;23.30;99.10
26326;DHT22;14032;52.510;7.342;2023-06-10T07:46:57;23.30;98.50
26326;DHT22;14032;52.510;7.342;2023-06-10T07:49:23;23.30;98.60
26326;DHT22;14032;52.510;7.342;2023-06-10T07:51:50;23.40;99.10
26326;DHT22;14032;52.510;7.342;2023-06-10T07:54:16;23.50;98.50
26326;DHT22;14032;52.510;7.342;2023-06-10T07:56:41;23.50;98.00
26326;DHT22;14032;52.510;7.342;2023-06-10T07:59:07;23.50;98.30
26326;DHT22;14032;52.510;7.342;2023-06-10T08:01:32;23.60;97.40
26326;DHT22;14032;52.510;7.342;2023-06-10T08:03:58;23.70;97.70
26326;DHT22;14032;52.510;7.342;2023-06-10T08:06:24;23.80;97.50
26326;DHT22;14032;52.510;7.342;2023-06-10T08:08:49;23.70;97.30
26326;DHT22;14032;52.510;7.342;2023-06-10T08:11:15;23.80;96.70
26326;DHT22;14032;52.510;7.342;2023-06-10T08:13:40;23.90;96.70
26326;DHT22;14032;52.510;7.342;2023-06-10T08:16:06;23.90;96.50
26326;DHT22;14032;52.510;7.342;2023-06-10T08:18:32;24.00;96.20
26326;DHT22;14032;52.510;7.342;2023-06-10T08:20:59;24.10;95.80
26326;DHT22;14032;52.510;7.342;2023-06-10T08:23:24;24.20;96.10
26326;DHT22;14032;52.510;7.342;2023-06-10T08:25:50;24.30;95.90
26326;DHT22;14032;52.510;7.342;2023-06-10T08:28:16;24.50;95.80
26326;DHT22;14032;52.510;7.342;2023-06-10T08:30:41;24.50;95.70
26326;DHT22;14032;52.510;7.342;2023-06-10T08:33:07;24.60;95.20
26326;DHT22;14032;52.510;7.342;2023-06-10T08:35:33;24.80;94.50
26326;DHT22;14032;52.510;7.342;2023-06-10T08:37:58;24.90;94.60
26326;DHT22;14032;52.510;7.342;2023-06-10T08:40:24;24.90;94.10
26326;DHT22;14032;52.510;7.342;2023-06-10T08:45:30;25.00;94.10
26326;DHT22;14032;52.510;7.342;2023-06-10T08:48:05;25.20;94.30
26326;DHT22;14032;52.510;7.342;2023-06-10T08:50:35;25.30;93.50
26326;DHT22;14032;52.510;7.342;2023-06-10T08:53:01;25.30;92.70
26326;DHT22;14032;52.510;7.342;2023-06-10T08:55:30;25.50;93.70
26326;DHT22;14032;52.510;7.342;2023-06-10T08:58:01;25.50;93.80
26326;DHT22;14032;52.510;7.342;2023-06-10T09:00:28;25.50;93.40
26326;DHT22;14032;52.510;7.342;2023-06-10T09:02:57;25.50;93.50
26326;DHT22;14032;52.510;7.342;2023-06-10T09:05:24;25.50;92.60
26326;DHT22;14032;52.510;7.342;2023-06-10T09:07:52;25.60;92.50
26326;DHT22;14032;52.510;7.342;2023-06-10T09:10:17;25.70;92.60
26326;DHT22;14032;52.510;7.342;2023-06-10T09:12:43;25.80;92.20
26326;DHT22;14032;52.510;7.342;2023-06-10T09:15:10;25.90;92.00
26326;DHT22;14032;52.510;7.342;2023-06-10T09:17:37;26.00;92.10
26326;DHT22;14032;52.510;7.342;2023-06-10T09:20:03;26.10;91.70
26326;DHT22;14032;52.510;7.342;2023-06-10T09:22:29;26.10;91.10
26326;DHT22;14032;52.510;7.342;2023-06-10T09:25:06;26.10;91.20
26326;DHT22;14032;52.510;7.342;2023-06-10T09:27:50;26.10;89.60
26326;DHT22;14032;52.510;7.342;2023-06-10T09:32:52;26.30;90.00
26326;DHT22;14032;52.510;7.342;2023-06-10T09:35:18;26.40;90.00
26326;DHT22;14032;52.510;7.342;2023-06-10T09:37:44;26.40;90.60
26326;DHT22;14032;52.510;7.342;2023-06-10T09:40:10;26.60;88.70
26326;DHT22;14032;52.510;7.342;2023-06-10T09:42:38;26.60;87.30
26326;DHT22;14032;52.510;7.342;2023-06-10T09:45:05;26.50;85.40
26326;DHT22;14032;52.510;7.342;2023-06-10T09:47:31;26.60;87.50
26326;DHT22;14032;52.510;7.342;2023-06-10T09:49:56;26.80;88.70
26326;DHT22;14032;52.510;7.342;2023-06-10T09:52:27;26.70;86.70
26326;DHT22;14032;52.510;7.342;2023-06-10T09:54:54;26.90;85.70
26326;DHT22;14032;52.510;7.342;2023-06-10T09:57:22;26.90;84.50
26326;DHT22;14032;52.510;7.342;2023-06-10T09:59:48;27.10;85.30
26326;DHT22;14032;52.510;7.342;2023-06-10T10:02:17;27.20;86.60
26326;DHT22;14032;52.510;7.342;2023-06-10T10:04:46;27.30;86.00
26326;DHT22;14032;52.510;7.342;2023-06-10T10:07:12;27.40;85.20
26326;DHT22;14032;52.510;7.342;2023-06-10T10:09:39;27.50;84.80
26326;DHT22;14032;52.510;7.342;2023-06-10T10:12:14;27.50;83.40
26326;DHT22;14032;52.510;7.342;2023-06-10T10:14:46;27.40;82.90
26326;DHT22;14032;52.510;7.342;2023-06-10T10:17:14;27.50;83.60
26326;DHT22;14032;52.510;7.342;2023-06-10T10:19:52;27.50;82.60
26326;DHT22;14032;52.510;7.342;2023-06-10T10:22:26;27.60;80.50
26326;DHT22;14032;52.510;7.342;2023-06-10T10:25:01;27.60;78.20
26326;DHT22;14032;52.510;7.342;2023-06-10T10:27:30;27.60;78.00
26326;DHT22;14032;52.510;7.342;2023-06-10T10:29:58;27.50;78.30
26326;DHT22;14032;52.510;7.342;2023-06-10T10:32:58;27.60;79.40
26326;DHT22;14032;52.510;7.342;2023-06-10T10:35:27;27.70;77.70
26326;DHT22;14032;52.510;7.342;2023-06-10T10:37:54;27.70;77.80
26326;DHT22;14032;52.510;7.342;2023-06-10T10:40:23;27.70;79.00
26326;DHT22;14032;52.510;7.342;2023-06-10T10:42:50;27.80;79.60
26326;DHT22;14032;52.510;7.342;2023-06-10T10:45:16;27.90;78.50
26326;DHT22;14032;52.510;7.342;2023-06-10T10:47:44;28.10;76.20
26326;DHT22;14032;52.510;7.342;2023-06-10T10:50:18;28.20;75.70
26326;DHT22;14032;52.510;7.342;2023-06-10T10:55:21;28.20;74.40
26326;DHT22;14032;52.510;7.342;2023-06-10T10:58:04;28.20;74.90
26326;DHT22;14032;52.510;7.342;2023-06-10T11:00:31;28.30;71.70
26326;DHT22;14032;52.510;7.342;2023-06-10T11:02:59;28.30;73.00
26326;DHT22;14032;52.510;7.342;2023-06-10T11:05:42;28.30;72.80
26326;DHT22;14032;52.510;7.342;2023-06-10T11:08:10;28.30;72.70
26326;DHT22;14032;52.510;7.342;2023-06-10T11:10:40;28.40;73.20
26326;DHT22;14032;52.510;7.342;2023-06-10T11:15:38;28.60;74.40
26326;DHT22;14032;52.510;7.342;2023-06-10T11:23:09;28.60;72.40
26326;DHT22;14032;52.510;7.342;2023-06-10T11:25:38;28.60;71.60
26326;DHT22;14032;52.510;7.342;2023-06-10T11:28:17;28.70;71.00
26326;DHT22;14032;52.510;7.342;2023-06-10T11:30:43;28.70;69.80
26326;DHT22;14032;52.510;7.342;2023-06-10T11:33:09;28.80;70.70
26326;DHT22;14032;52.510;7.342;2023-06-10T11:35:39;28.80;68.70
26326;DHT22;14032;52.510;7.342;2023-06-10T11:38:05;28.90;69.50
26326;DHT22;14032;52.510;7.342;2023-06-10T11:40:31;29.00;69.00
26326;DHT22;14032;52.510;7.342;2023-06-10T11:42:58;29.20;68.20
26326;DHT22;14032;52.510;7.342;2023-06-10T11:45:23;29.20;67.40
26326;DHT22;14032;52.510;7.342;2023-06-10T11:47:58;29.20;67.30
26326;DHT22;14032;52.510;7.342;2023-06-10T11:50:28;29.10;67.50
26326;DHT22;14032;52.510;7.342;2023-06-10T11:52:54;29.10;67.60
26326;DHT22;14032;52.510;7.342;2023-06-10T11:55:21;29.20;68.10
26326;DHT22;14032;52.510;7.342;2023-06-10T11:57:46;29.30;67.70
26326;DHT22;14032;52.510;7.342;2023-06-10T12:00:13;29.10;67.10
26326;DHT22;14032;52.510;7.342;2023-06-10T12:02:39;28.90;66.40
26326;DHT22;14032;52.510;7.342;2023-06-10T12:05:14;28.90;67.80
26326;DHT22;14032;52.510;7.342;2023-06-10T12:07:40;28.80;68.00
26326;DHT22;14032;52.510;7.342;2023-06-10T12:10:06;28.60;67.00
26326;DHT22;14032;52.510;7.342;2023-06-10T12:12:34;28.50;67.80
26326;DHT22;14032;52.510;7.342;2023-06-10T12:15:02;28.40;67.30
26326;DHT22;14032;52.510;7.342;2023-06-10T12:19:57;28.30;66.90
26326;DHT22;14032;52.510;7.342;2023-06-10T12:22:23;28.20;67.60
26326;DHT22;14032;52.510;7.342;2023-06-10T12:25:04;28.00;68.10
26326;DHT22;14032;52.510;7.342;2023-06-10T12:27:30;27.90;68.30
26326;DHT22;14032;52.510;7.342;2023-06-10T12:29:58;27.90;68.60
26326;DHT22;14032;52.510;7.342;2023-06-10T12:32:42;27.80;68.00
26326;DHT22;14032;52.510;7.342;2023-06-10T12:35:10;27.70;69.10
26326;DHT22;14032;52.510;7.342;2023-06-10T12:37:37;27.60;69.80
26326;DHT22;14032;52.510;7.342;2023-06-10T12:40:04;27.50;69.80
26326;DHT22;14032;52.510;7.342;2023-06-10T12:42:32;27.40;70.00
26326;DHT22;14032;52.510;7.342;2023-06-10T12:45:00;27.40;69.50
26326;DHT22;14032;52.510;7.342;2023-06-10T12:47:44;27.40;69.40
26326;DHT22;14032;52.510;7.342;2023-06-10T12:50:10;27.30;69.80
26326;DHT22;14032;52.510;7.342;2023-06-10T12:52:37;27.30;69.40
26326;DHT22;14032;52.510;7.342;2023-06-10T12:55:04;27.30;70.20
26326;DHT22;14032;52.510;7.342;2023-06-10T12:57:30;27.30;70.20
26326;DHT22;14032;52.510;7.342;2023-06-10T12:59:56;27.30;71.00
26326;DHT22;14032;52.510;7.342;2023-06-10T13:02:28;27.20;69.90
26326;DHT22;14032;52.510;7.342;2023-06-10T13:04:54;27.30;67.50
26326;DHT22;14032;52.510;7.342;2023-06-10T13:07:24;27.30;67.10
26326;DHT22;14032;52.510;7.342;2023-06-10T13:09:50;27.20;68.30
26326;DHT22;14032;52.510;7.342;2023-06-10T13:12:15;27.20;68.00
26326;DHT22;14032;52.510;7.342;2023-06-10T13:14:42;27.10;67.90
26326;DHT22;14032;52.510;7.342;2023-06-10T13:17:08;27.20;67.10
26326;DHT22;14032;52.510;7.342;2023-06-10T13:19:34;27.20;66.30
26326;DHT22;14032;52.510;7.342;2023-06-10T13:21:59;27.20;66.90
26326;DHT22;14032;52.510;7.342;2023-06-10T13:24:25;27.20;67.00
26326;DHT22;14032;52.510;7.342;2023-06-10T13:26:54;27.20;67.10
26326;DHT22;14032;52.510;7.342;2023-06-10T13:29:21;27.10;66.60
26326;DHT22;14032;52.510;7.342;2023-06-10T13:31:47;27.10;66.80
26326;DHT22;14032;52.510;7.342;2023-06-10T13:34:13;27.10;65.20
26326;DHT22;14032;52.510;7.342;2023-06-10T13:36:38;27.20;65.90
26326;DHT22;14032;52.510;7.342;2023-06-10T13:39:04;27.20;65.40
26326;DHT22;14032;52.510;7.342;2023-06-10T13:41:30;27.20;65.50
26326;DHT22;14032;52.510;7.342;2023-06-10T13:43:55;27.10;65.20
26326;DHT22;14032;52.510;7.342;2023-06-10T13:46:21;27.10;64.60
26326;DHT22;14032;52.510;7.342;2023-06-10T13:48:47;27.20;64.80
26326;DHT22;14032;52.510;7.342;2023-06-10T13:51:13;27.20;64.50
26326;DHT22;14032;52.510;7.342;2023-06-10T13:53:39;27.20;64.80
26326;DHT22;14032;52.510;7.342;2023-06-10T13:56:04;27.10;64.20
26326;DHT22;14032;52.510;7.342;2023-06-10T13:58:30;27.10;64.50
26326;DHT22;14032;52.510;7.342;2023-06-10T14:00:56;27.10;64.10
26326;DHT22;14032;52.510;7.342;2023-06-10T14:03:23;27.20;64.60
26326;DHT22;14032;52.510;7.342;2023-06-10T14:05:49;27.20;64.80
26326;DHT22;14032;52.510;7.342;2023-06-10T14:08:14;27.20;64.90
26326;DHT22;14032;52.510;7.342;2023-06-10T14:10:40;27.30;64.50
26326;DHT22;14032;52.510;7.342;2023-06-10T14:13:06;27.30;64.90
26326;DHT22;14032;52.510;7.342;2023-06-10T14:15:32;27.30;64.80
26326;DHT22;14032;52.510;7.342;2023-06-10T14:17:57;27.30;64.20
26326;DHT22;14032;52.510;7.342;2023-06-10T14:20:23;27.30;64.00
26326;DHT22;14032;52.510;7.342;2023-06-10T14:22:51;27.30;64.30
26326;DHT22;14032;52.510;7.342;2023-06-10T14:25:16;27.40;63.40
26326;DHT22;14032;52.510;7.342;2023-06-10T14:27:43;27.40;64.00
26326;DHT22;14032;52.510;7.342;2023-06-10T14:30:08;27.30;64.40
26326;DHT22;14032;52.510;7.342;2023-06-10T14:32:35;27.30;64.80
26326;DHT22;14032;52.510;7.342;2023-06-10T14:35:01;27.30;64.80
26326;DHT22;14032;52.510;7.342;2023-06-10T14:37:26;27.30;64.80
26326;DHT22;14032;52.510;7.342;2023-06-10T14:39:52;27.30;64.90
26326;DHT22;14032;52.510;7.342;2023-06-10T14:42:18;27.30;65.30
26326;DHT22;14032;52.510;7.342;2023-06-10T14:44:45;27.30;65.10
26326;DHT22;14032;52.510;7.342;2023-06-10T14:47:10;27.30;64.90
26326;DHT22;14032;52.510;7.342;2023-06-10T14:49:36;27.20;65.50
26326;DHT22;14032;52.510;7.342;2023-06-10T14:52:01;27.20;65.70
26326;DHT22;14032;52.510;7.342;2023-06-10T14:54:27;27.30;65.50
26326;DHT22;14032;52.510;7.342;2023-06-10T14:56:52;27.30;65.70
26326;DHT22;14032;52.510;7.342;2023-06-10T14:59:18;27.30;65.70
26326;DHT22;14032;52.510;7.342;2023-06-10T15:01:43;27.30;65.40
26326;DHT22;14032;52.510;7.342;2023-06-10T15:04:09;27.20;65.70
26326;DHT22;14032;52.510;7.342;2023-06-10T15:06:35;27.20;65.00
26326;DHT22;14032;52.510;7.342;2023-06-10T15:09:00;27.20;65.70
26326;DHT22;14032;52.510;7.342;2023-06-10T15:11:26;27.20;65.10
26326;DHT22;14032;52.510;7.342;2023-06-10T15:13:51;27.20;65.00
26326;DHT22;14032;52.510;7.342;2023-06-10T15:16:17;27.20;65.80
26326;DHT22;14032;52.510;7.342;2023-06-10T15:18:42;27.20;64.30
26326;DHT22;14032;52.510;7.342;2023-06-10T15:21:08;27.20;65.90
26326;DHT22;14032;52.510;7.342;2023-06-10T15:23:34;27.30;66.20
26326;DHT22;14032;52.510;7.342;2023-06-10T15:25:59;27.30;66.00
26326;DHT22;14032;52.510;7.342;2023-06-10T15:28:25;27.30;66.30
26326;DHT22;14032;52.510;7.342;2023-06-10T15:30:51;27.30;66.70
26326;DHT22;14032;52.510;7.342;2023-06-10T15:33:16;27.20;66.80
26326;DHT22;14032;52.510;7.342;2023-06-10T15:35:42;27.30;67.50
26326;DHT22;14032;52.510;7.342;2023-06-10T15:38:07;27.30;67.80
26326;DHT22;14032;52.510;7.342;2023-06-10T15:40:33;27.30;68.30
26326;DHT22;14032;52.510;7.342;2023-06-10T15:43:00;27.30;67.80
26326;DHT22;14032;52.510;7.342;2023-06-10T15:45:26;27.30;67.50
26326;DHT22;14032;52.510;7.342;2023-06-10T15:47:52;27.30;68.10